createdAt,value
2022-12-11T00:00:00.476Z,86.46
2022-12-11T00:01:00.480Z,86.46
2022-12-11T00:02:00.488Z,86.68
2022-12-11T00:03:00.538Z,86.57
2022-12-11T00:04:00.451Z,86.78
2022-12-11T00:05:00.455Z,86.82
2022-12-11T00:06:00.975Z,87.62
2022-12-11T00:07:00.421Z,87.30
2022-12-11T00:08:00.455Z,87.41
2022-12-11T00:09:00.411Z,87.24
2022-12-11T00:10:00.406Z,86.71
2022-12-11T00:11:00.391Z,86.88
2022-12-11T00:12:00.384Z,87.97
2022-12-11T00:13:00.383Z,88.07
2022-12-11T00:14:00.369Z,87.76
2022-12-11T00:15:00.370Z,88.39
2022-12-11T00:16:00.354Z,88.39
2022-12-11T00:17:00.378Z,87.97
2022-12-11T00:18:00.343Z,88.07
2022-12-11T00:19:00.403Z,88.29
2022-12-11T00:20:00.337Z,88.07
2022-12-11T00:21:00.316Z,88.32
2022-12-11T00:22:00.311Z,88.07
2022-12-11T00:23:00.298Z,88.29
2022-12-11T00:24:00.291Z,88.43
2022-12-11T00:25:00.293Z,88.12
2022-12-11T00:26:00.273Z,88.12
2022-12-11T00:28:00.860Z,88.47
2022-12-11T00:29:00.859Z,88.26
2022-12-11T00:30:00.845Z,88.37
2022-12-11T00:31:00.842Z,88.89
2022-12-11T00:32:00.873Z,88.47
2022-12-11T00:33:01.927Z,89.10
2022-12-11T00:34:01.912Z,89.10
2022-12-11T00:35:01.902Z,88.89
2022-12-11T00:36:02.806Z,89.21
2022-12-11T00:37:01.918Z,89.10
2022-12-11T00:38:01.887Z,89.25
2022-12-11T00:39:01.878Z,89.25
2022-12-11T00:40:01.910Z,89.56
2022-12-11T00:41:01.859Z,89.46
2022-12-11T00:42:01.854Z,90.09
2022-12-11T00:43:01.863Z,90.30
2022-12-11T00:44:01.840Z,90.34
2022-12-11T00:45:01.836Z,90.19
2022-12-11T00:46:01.875Z,90.12
2022-12-11T00:47:01.810Z,90.34
2022-12-11T00:48:01.801Z,90.44
2022-12-11T00:49:01.807Z,90.86
2022-12-11T00:50:01.780Z,91.33
2022-12-11T00:51:01.773Z,91.39
2022-12-11T00:52:01.773Z,91.28
2022-12-11T00:53:01.776Z,91.07
2022-12-11T00:54:01.773Z,91.18
2022-12-11T00:55:01.740Z,91.39
2022-12-11T00:56:01.729Z,91.43
2022-12-11T00:57:01.724Z,91.96
2022-12-11T00:58:01.739Z,91.74
2022-12-11T00:59:01.715Z,92.38
2022-12-11T01:00:01.702Z,92.38
2022-12-11T01:01:01.764Z,92.90
2022-12-11T01:02:01.704Z,93.26
2022-12-11T01:03:01.818Z,93.05
2022-12-11T01:04:01.675Z,92.84
2022-12-11T01:05:01.662Z,93.37
2022-12-11T01:06:01.655Z,93.26
2022-12-11T01:07:01.654Z,93.37
2022-12-11T01:08:01.679Z,93.26
2022-12-11T01:09:01.637Z,93.26
2022-12-11T01:10:01.624Z,93.15
2022-12-11T01:11:01.619Z,93.89
2022-12-11T01:12:01.606Z,93.99
2022-12-11T01:13:01.616Z,94.46
2022-12-11T01:14:01.599Z,94.10
2022-12-11T01:15:01.603Z,94.35
2022-12-11T01:16:01.580Z,94.31
2022-12-11T01:17:01.625Z,94.67
2022-12-11T01:18:01.582Z,93.93
2022-12-11T01:19:01.556Z,94.04
2022-12-11T01:20:01.554Z,94.14
2022-12-11T01:21:01.549Z,94.67
2022-12-11T01:22:01.537Z,94.46
2022-12-11T01:23:01.544Z,94.67
2022-12-11T01:24:01.531Z,94.60
2022-12-11T01:25:01.516Z,94.35
2022-12-11T01:26:01.513Z,94.78
2022-12-11T01:27:01.495Z,94.78
2022-12-11T01:28:01.496Z,95.09
2022-12-11T01:29:01.487Z,94.78
2022-12-11T01:30:01.474Z,94.78
2022-12-11T01:31:01.499Z,94.98
2022-12-11T01:32:01.458Z,94.25
2022-12-11T01:33:01.451Z,94.35
2022-12-11T01:34:01.468Z,94.67
2022-12-11T01:35:01.435Z,94.35
2022-12-11T01:36:01.423Z,94.62
2022-12-11T01:37:01.427Z,94.46
2022-12-11T01:38:01.418Z,94.62
2022-12-11T01:39:01.419Z,94.31
2022-12-11T01:40:01.397Z,94.10
2022-12-11T01:41:01.392Z,93.89
2022-12-11T01:42:01.385Z,94.10
2022-12-11T01:43:01.373Z,93.89
2022-12-11T01:44:01.371Z,93.26
2022-12-11T01:45:01.357Z,93.79
2022-12-11T01:46:01.378Z,93.22
2022-12-11T01:47:01.347Z,93.22
2022-12-11T01:48:02.237Z,93.47
2022-12-11T01:49:01.337Z,93.05
2022-12-11T01:50:01.321Z,93.22
2022-12-11T01:51:01.328Z,92.80
2022-12-11T01:52:01.304Z,93.05
2022-12-11T01:53:01.308Z,92.90
2022-12-11T01:54:01.303Z,92.27
2022-12-11T01:55:01.298Z,92.38
2022-12-11T01:56:01.281Z,92.58
2022-12-11T01:57:01.270Z,92.48
2022-12-11T01:58:01.261Z,92.33
2022-12-11T01:59:01.254Z,92.33
2022-12-11T02:00:01.264Z,92.44
2022-12-11T02:01:01.257Z,92.58
2022-12-11T02:02:01.304Z,92.76
2022-12-11T02:03:01.223Z,92.54
2022-12-11T02:04:01.215Z,92.12
2022-12-11T02:05:01.215Z,91.60
2022-12-11T02:06:01.198Z,91.14
2022-12-11T02:07:01.221Z,91.71
2022-12-11T02:08:01.225Z,91.66
2022-12-11T02:09:01.180Z,91.14
2022-12-11T02:10:01.179Z,91.14
2022-12-11T02:11:01.168Z,91.24
2022-12-11T02:12:01.149Z,91.45
2022-12-11T02:13:01.147Z,90.82
2022-12-11T02:14:01.138Z,90.72
2022-12-11T02:15:01.135Z,90.40
2022-12-11T02:16:01.179Z,90.47
2022-12-11T02:17:01.111Z,90.72
2022-12-11T02:18:01.106Z,90.67
2022-12-11T02:19:01.096Z,90.51
2022-12-11T02:20:01.100Z,90.36
2022-12-11T02:21:01.079Z,90.30
2022-12-11T02:22:01.081Z,90.15
2022-12-11T02:23:01.082Z,89.87
2022-12-11T02:24:01.056Z,90.25
2022-12-11T02:25:01.061Z,90.05
2022-12-11T02:26:01.040Z,89.62
2022-12-11T02:27:01.035Z,89.35
2022-12-11T02:28:01.026Z,89.10
2022-12-11T02:29:01.017Z,89.10
2022-12-11T02:30:01.018Z,89.14
2022-12-11T02:31:01.051Z,88.89
2022-12-11T02:32:00.999Z,89.10
2022-12-11T02:33:01.006Z,88.79
2022-12-11T02:34:00.981Z,88.79
2022-12-11T02:35:00.970Z,88.79
2022-12-11T02:36:00.976Z,89.00
2022-12-11T02:37:00.958Z,88.57
2022-12-11T02:38:01.954Z,88.62
2022-12-11T02:39:00.940Z,89.04
2022-12-11T02:40:00.941Z,89.10
2022-12-11T02:41:00.923Z,89.00
2022-12-11T02:42:01.922Z,88.68
2022-12-11T02:43:00.924Z,88.89
2022-12-11T02:44:00.905Z,88.37
2022-12-11T02:45:00.898Z,88.79
2022-12-11T02:46:01.007Z,88.47
2022-12-11T02:47:00.877Z,88.68
2022-12-11T02:48:00.881Z,88.26
2022-12-11T02:49:00.885Z,88.26
2022-12-11T02:50:00.854Z,88.47
2022-12-11T02:51:00.844Z,87.95
2022-12-11T02:52:01.839Z,87.84
2022-12-11T02:53:00.836Z,87.95
2022-12-11T02:54:00.824Z,87.80
2022-12-11T02:55:00.820Z,87.74
2022-12-11T02:56:00.815Z,87.63
2022-12-11T02:57:00.804Z,86.79
2022-12-11T02:58:00.799Z,87.00
2022-12-11T02:59:06.749Z,87.74
2022-12-11T03:00:01.787Z,88.16
2022-12-11T03:01:00.831Z,87.95
2022-12-11T03:02:00.792Z,87.95
2022-12-11T03:03:00.767Z,88.57
2022-12-11T03:04:00.744Z,88.68
2022-12-11T03:05:00.741Z,88.47
2022-12-11T03:06:00.737Z,88.37
2022-12-11T03:07:00.726Z,88.68
2022-12-11T03:08:00.735Z,88.54
2022-12-11T03:09:00.705Z,88.05
2022-12-11T03:10:00.702Z,88.16
2022-12-11T03:11:00.697Z,88.16
2022-12-11T03:12:00.680Z,88.12
2022-12-11T03:13:00.681Z,88.32
2022-12-11T03:14:00.667Z,88.47
2022-12-11T03:15:00.689Z,87.80
2022-12-11T03:16:00.703Z,87.80
2022-12-11T03:17:00.649Z,87.59
2022-12-11T03:18:00.632Z,87.63
2022-12-11T03:19:00.625Z,88.16
2022-12-11T03:20:00.626Z,87.91
2022-12-11T03:21:00.606Z,88.47
2022-12-11T03:22:00.604Z,88.12
2022-12-11T03:23:00.593Z,88.54
2022-12-11T03:24:00.596Z,86.65
2022-12-11T03:25:00.580Z,86.69
2022-12-11T03:26:00.565Z,86.33
2022-12-11T03:27:01.064Z,86.33
2022-12-11T03:28:01.555Z,86.65
2022-12-11T03:29:00.549Z,86.44
2022-12-11T03:30:00.543Z,86.29
2022-12-11T03:31:00.575Z,86.65
2022-12-11T03:32:00.528Z,86.33
2022-12-11T03:33:01.247Z,86.29
2022-12-11T03:34:00.529Z,84.97
2022-12-11T03:35:00.496Z,85.25
2022-12-11T03:36:00.496Z,84.03
2022-12-11T03:37:00.480Z,83.50
2022-12-11T03:38:00.472Z,83.88
2022-12-11T03:39:00.475Z,84.30
2022-12-11T03:40:00.455Z,84.62
2022-12-11T03:41:00.463Z,85.25
2022-12-11T03:42:00.447Z,85.77
2022-12-11T03:43:00.449Z,85.46
2022-12-11T03:44:00.426Z,84.41
2022-12-11T03:45:00.439Z,84.20
2022-12-11T03:46:00.454Z,83.78
2022-12-11T03:47:01.322Z,83.67
2022-12-11T03:48:00.405Z,83.78
2022-12-11T03:49:00.391Z,83.84
2022-12-11T03:50:00.385Z,83.67
2022-12-11T03:51:00.400Z,83.78
2022-12-11T03:52:00.369Z,83.11
2022-12-11T03:53:00.352Z,83.01
2022-12-11T03:54:00.357Z,82.59
2022-12-11T03:55:00.342Z,82.17
2022-12-11T03:56:00.329Z,81.75
2022-12-11T03:57:00.333Z,81.64
2022-12-11T03:58:00.314Z,81.54
2022-12-11T03:59:00.311Z,81.01
2022-12-11T04:00:00.297Z,81.43
2022-12-11T04:01:00.290Z,81.54
2022-12-11T04:02:00.372Z,80.70
2022-12-11T04:03:00.289Z,81.29
2022-12-11T04:04:00.338Z,80.66
2022-12-11T04:05:01.250Z,79.83
2022-12-11T04:06:00.251Z,80.14
2022-12-11T04:07:00.253Z,80.56
2022-12-11T04:08:00.290Z,80.07
2022-12-11T04:09:00.232Z,80.49
2022-12-11T04:10:00.225Z,79.72
2022-12-11T04:11:00.212Z,79.75
2022-12-11T04:12:00.210Z,79.93
2022-12-11T04:13:00.204Z,80.14
2022-12-11T04:14:00.191Z,79.97
2022-12-11T04:15:00.180Z,80.28
2022-12-11T04:16:00.262Z,79.75
2022-12-11T04:17:00.184Z,79.55
2022-12-11T04:18:00.167Z,80.38
2022-12-11T04:19:00.166Z,79.86
2022-12-11T04:20:00.150Z,79.55
2022-12-11T04:21:00.141Z,80.07
2022-12-11T04:22:00.133Z,79.44
2022-12-11T04:23:00.827Z,80.18
2022-12-11T04:24:00.121Z,80.49
2022-12-11T04:25:00.112Z,79.55
2022-12-11T04:26:00.103Z,80.49
2022-12-11T04:27:00.093Z,81.05
2022-12-11T04:28:00.082Z,80.18
2022-12-11T04:29:00.084Z,79.90
2022-12-11T04:30:00.078Z,79.69
2022-12-11T04:31:00.084Z,80.11
2022-12-11T04:32:00.069Z,80.28
2022-12-11T04:33:00.044Z,80.70
2022-12-11T04:34:00.029Z,80.32
2022-12-11T04:35:00.034Z,79.06
2022-12-11T04:36:00.055Z,79.06
2022-12-11T04:37:00.028Z,79.06
2022-12-11T04:38:00.002Z,80.00
2022-12-11T04:38:59.995Z,79.69
2022-12-11T04:39:59.990Z,79.58
2022-12-11T04:40:59.979Z,79.69
2022-12-11T04:41:59.976Z,79.58
2022-12-11T04:42:59.967Z,79.97
2022-12-11T04:43:59.958Z,79.90
2022-12-11T04:44:59.964Z,79.97
2022-12-11T04:45:59.967Z,79.34
2022-12-11T04:46:59.939Z,79.34
2022-12-11T04:47:59.923Z,79.65
2022-12-11T04:48:59.916Z,79.65
2022-12-11T04:49:59.909Z,79.65
2022-12-11T04:50:59.900Z,79.69
2022-12-11T04:51:59.900Z,79.55
2022-12-11T04:52:59.877Z,79.75
2022-12-11T04:53:59.881Z,78.60
2022-12-11T04:54:59.869Z,79.58
2022-12-11T04:55:59.852Z,78.19
2022-12-11T04:56:59.853Z,79.65
2022-12-11T04:57:59.845Z,79.34
2022-12-11T04:58:59.837Z,79.65
2022-12-11T04:59:59.823Z,79.65
2022-12-11T05:00:59.826Z,79.55
2022-12-11T05:01:59.862Z,79.34
2022-12-11T05:02:59.923Z,79.51
2022-12-11T05:03:59.798Z,79.55
2022-12-11T05:04:59.788Z,79.65
2022-12-11T05:05:59.779Z,78.81
2022-12-11T05:06:59.783Z,78.60
2022-12-11T05:07:59.766Z,79.75
2022-12-11T05:08:59.764Z,79.65
2022-12-11T05:09:59.746Z,78.71
2022-12-11T05:10:59.743Z,79.61
2022-12-11T05:11:59.730Z,78.81
2022-12-11T05:12:59.723Z,79.34
2022-12-11T05:13:59.713Z,79.34
2022-12-11T05:14:59.714Z,79.44
2022-12-11T05:15:59.794Z,79.97
2022-12-11T05:16:59.688Z,79.55
2022-12-11T05:17:59.690Z,79.02
2022-12-11T05:18:59.679Z,79.34
2022-12-11T05:19:59.668Z,78.92
2022-12-11T05:20:59.658Z,78.92
2022-12-11T05:21:59.661Z,79.65
2022-12-11T05:22:59.649Z,79.02
2022-12-11T05:23:59.649Z,78.71
2022-12-11T05:24:59.659Z,78.92
2022-12-11T05:26:00.335Z,78.78
2022-12-11T05:26:59.613Z,79.55
2022-12-11T05:27:59.606Z,79.34
2022-12-11T05:28:59.599Z,79.51
2022-12-11T05:29:59.859Z,79.55
2022-12-11T05:31:00.639Z,79.23
2022-12-11T05:31:59.571Z,78.88
2022-12-11T05:32:59.564Z,79.02
2022-12-11T05:33:59.560Z,79.13
2022-12-11T05:34:59.547Z,79.65
2022-12-11T05:35:59.547Z,79.97
2022-12-11T05:36:59.537Z,79.86
2022-12-11T05:37:59.531Z,80.11
2022-12-11T05:38:59.529Z,79.65
2022-12-11T05:39:59.511Z,80.18
2022-12-11T05:40:59.503Z,79.75
2022-12-11T05:41:59.524Z,79.90
2022-12-11T05:42:59.505Z,80.21
2022-12-11T05:43:59.485Z,80.38
2022-12-11T05:44:59.471Z,79.58
2022-12-11T05:45:59.461Z,79.90
2022-12-11T05:46:59.503Z,80.63
2022-12-11T05:47:59.446Z,80.11
2022-12-11T05:48:59.443Z,80.53
2022-12-11T05:49:59.431Z,79.48
2022-12-11T05:50:59.426Z,79.79
2022-12-11T05:51:59.417Z,79.90
2022-12-11T05:52:59.413Z,80.00
2022-12-11T05:53:59.403Z,80.74
2022-12-11T05:54:59.406Z,81.51
2022-12-11T05:55:59.393Z,81.20
2022-12-11T05:56:59.378Z,82.24
2022-12-11T05:57:59.373Z,81.72
2022-12-11T05:58:59.364Z,81.51
2022-12-11T05:59:59.359Z,81.72
2022-12-11T06:00:59.351Z,82.56
2022-12-11T06:01:59.431Z,83.18
2022-12-11T06:02:59.489Z,82.98
2022-12-11T06:03:59.326Z,83.18
2022-12-11T06:04:59.332Z,82.87
2022-12-11T06:05:59.315Z,82.98
2022-12-11T06:06:59.300Z,83.67
2022-12-11T06:07:59.314Z,83.25
2022-12-11T06:08:59.294Z,83.57
2022-12-11T06:09:59.291Z,83.47
2022-12-11T06:10:59.273Z,83.67
2022-12-11T06:11:59.262Z,84.20
2022-12-11T06:12:59.254Z,84.44
2022-12-11T06:13:59.254Z,84.34
2022-12-11T06:14:59.249Z,83.92
2022-12-11T06:15:59.277Z,84.03
2022-12-11T06:16:59.224Z,83.61
2022-12-11T06:17:59.240Z,83.29
2022-12-11T06:18:59.225Z,83.29
2022-12-11T06:19:59.212Z,83.29
2022-12-11T06:20:59.190Z,83.50
2022-12-11T06:21:59.204Z,83.61
2022-12-11T06:22:59.174Z,83.50
2022-12-11T06:23:59.172Z,83.36
2022-12-11T06:24:59.160Z,83.04
2022-12-11T06:25:59.165Z,83.04
2022-12-11T06:26:59.162Z,82.73
2022-12-11T06:27:59.137Z,82.83
2022-12-11T06:28:59.138Z,82.52
2022-12-11T06:29:59.129Z,82.83
2022-12-11T06:30:59.116Z,83.04
2022-12-11T06:32:00.199Z,83.04
2022-12-11T06:32:59.096Z,82.90
2022-12-11T06:33:59.100Z,83.01
2022-12-11T06:34:59.088Z,83.01
2022-12-11T06:35:59.080Z,83.15
2022-12-11T06:36:59.068Z,83.36
2022-12-11T06:37:59.058Z,83.57
2022-12-11T06:38:59.056Z,83.88
2022-12-11T06:39:59.050Z,83.98
2022-12-11T06:40:59.034Z,83.78
2022-12-11T06:41:59.040Z,83.98
2022-12-11T06:42:59.019Z,83.98
2022-12-11T06:43:59.012Z,84.09
2022-12-11T06:44:59.007Z,84.30
2022-12-11T06:46:03.608Z,83.98
2022-12-11T06:47:00.993Z,84.41
2022-12-11T06:47:58.980Z,84.20
2022-12-11T06:48:58.972Z,84.30
2022-12-11T06:49:58.973Z,84.20
2022-12-11T06:50:58.958Z,84.09
2022-12-11T06:51:58.946Z,84.09
2022-12-11T06:52:58.941Z,84.20
2022-12-11T06:53:58.932Z,84.30
2022-12-11T06:54:58.932Z,84.55
2022-12-11T06:55:58.928Z,84.66
2022-12-11T06:56:58.915Z,84.55
2022-12-11T06:57:58.905Z,84.51
2022-12-11T06:59:02.837Z,84.34
2022-12-11T07:00:00.887Z,84.66
2022-12-11T07:00:58.924Z,84.76
2022-12-11T07:01:58.919Z,84.23
2022-12-11T07:02:58.883Z,84.13
2022-12-11T07:03:58.855Z,84.76
2022-12-11T07:04:58.848Z,84.66
2022-12-11T07:05:58.844Z,84.97
2022-12-11T07:06:58.830Z,85.18
2022-12-11T07:07:58.851Z,84.66
2022-12-11T07:08:58.824Z,84.86
2022-12-11T07:10:04.194Z,84.86
2022-12-11T07:11:00.807Z,84.72
2022-12-11T07:11:58.803Z,84.93
2022-12-11T07:12:58.790Z,84.83
2022-12-11T07:13:58.794Z,84.09
2022-12-11T07:14:58.776Z,84.20
2022-12-11T07:15:58.814Z,83.98
2022-12-11T07:16:58.752Z,83.88
2022-12-11T07:17:58.740Z,83.78
2022-12-11T07:18:58.740Z,83.88
2022-12-11T07:19:58.727Z,84.09
2022-12-11T07:20:58.724Z,84.09
2022-12-11T07:21:58.722Z,83.88
2022-12-11T07:22:58.701Z,83.78
2022-12-11T07:23:58.703Z,83.36
2022-12-11T07:24:58.688Z,83.47
2022-12-11T07:25:58.685Z,83.47
2022-12-11T07:26:58.681Z,83.67
2022-12-11T07:27:58.668Z,83.78
2022-12-11T07:28:58.672Z,83.84
2022-12-11T07:29:58.653Z,83.84
2022-12-11T07:30:58.645Z,83.42
2022-12-11T07:31:58.744Z,83.22
2022-12-11T07:32:58.662Z,83.22
2022-12-11T07:33:58.628Z,83.42
2022-12-11T07:34:58.613Z,83.32
2022-12-11T07:35:58.614Z,82.79
2022-12-11T07:36:58.601Z,83.18
2022-12-11T07:37:58.595Z,83.74
2022-12-11T07:38:58.588Z,83.53
2022-12-11T07:39:58.570Z,83.53
2022-12-11T07:40:58.573Z,83.32
2022-12-11T07:41:58.556Z,83.01
2022-12-11T07:42:58.572Z,82.55
2022-12-11T07:43:58.542Z,82.38
2022-12-11T07:44:58.535Z,82.17
2022-12-11T07:45:58.632Z,82.17
2022-12-11T07:46:58.520Z,82.27
2022-12-11T07:47:58.514Z,82.59
2022-12-11T07:48:59.507Z,82.27
2022-12-11T07:49:58.510Z,82.27
2022-12-11T07:50:58.487Z,81.60
2022-12-11T07:51:58.489Z,82.06
2022-12-11T07:52:58.472Z,81.71
2022-12-11T07:53:58.482Z,81.71
2022-12-11T07:54:58.455Z,81.50
2022-12-11T07:55:58.462Z,80.98
2022-12-11T07:56:59.285Z,81.57
2022-12-11T07:57:58.452Z,81.26
2022-12-11T07:58:58.434Z,81.15
2022-12-11T07:59:59.280Z,81.15
2022-12-11T08:00:58.555Z,80.83
2022-12-11T08:01:58.444Z,80.63
2022-12-11T08:02:58.403Z,81.04
2022-12-11T08:03:58.398Z,80.63
2022-12-11T08:04:58.392Z,81.26
2022-12-11T08:05:58.378Z,81.15
2022-12-11T08:06:58.361Z,81.04
2022-12-11T08:07:58.429Z,81.26
2022-12-11T08:08:58.355Z,80.94
2022-12-11T08:09:58.350Z,81.46
2022-12-11T08:10:58.333Z,81.36
2022-12-11T08:11:58.373Z,81.46
2022-12-11T08:12:58.329Z,81.78
2022-12-11T08:13:58.311Z,81.04
2022-12-11T08:14:58.310Z,81.46
2022-12-11T08:15:58.291Z,80.83
2022-12-11T08:16:58.354Z,80.83
2022-12-11T08:17:58.300Z,81.36
2022-12-11T08:18:58.267Z,81.57
2022-12-11T08:19:58.265Z,81.67
2022-12-11T08:20:58.261Z,81.67
2022-12-11T08:21:58.251Z,81.78
2022-12-11T08:22:59.262Z,81.36
2022-12-11T08:23:59.240Z,81.04
2022-12-11T08:24:58.226Z,81.71
2022-12-11T08:25:58.223Z,81.71
2022-12-11T08:26:58.210Z,82.45
2022-12-11T08:27:58.204Z,82.23
2022-12-11T08:28:58.200Z,82.69
2022-12-11T08:29:58.195Z,82.69
2022-12-11T08:30:58.246Z,83.11
2022-12-11T08:31:58.178Z,83.42
2022-12-11T08:32:58.170Z,82.86
2022-12-11T08:33:58.157Z,82.45
2022-12-11T08:34:58.147Z,82.34
2022-12-11T08:35:58.150Z,81.82
2022-12-11T08:36:58.135Z,81.60
2022-12-11T08:37:58.132Z,82.03
2022-12-11T08:38:58.113Z,81.36
2022-12-11T08:39:58.105Z,81.04
2022-12-11T08:40:58.108Z,80.94
2022-12-11T08:41:58.090Z,80.73
2022-12-11T08:42:58.088Z,80.69
2022-12-11T08:43:58.072Z,80.59
2022-12-11T08:44:58.069Z,80.63
2022-12-11T08:45:58.058Z,80.80
2022-12-11T08:46:58.042Z,81.46
2022-12-11T08:47:58.058Z,80.94
2022-12-11T08:48:58.030Z,81.67
2022-12-11T08:49:58.023Z,81.43
2022-12-11T08:50:58.020Z,81.32
2022-12-11T08:51:58.015Z,81.01
2022-12-11T08:52:58.012Z,80.69
2022-12-11T08:53:57.997Z,81.12
2022-12-11T08:54:57.984Z,81.43
2022-12-11T08:55:57.980Z,80.90
2022-12-11T08:56:58.439Z,81.99
2022-12-11T08:57:58.967Z,81.53
2022-12-11T08:58:57.955Z,82.06
2022-12-11T08:59:57.954Z,81.95
2022-12-11T09:00:57.986Z,81.95
2022-12-11T09:01:57.954Z,82.68
2022-12-11T09:02:58.009Z,82.58
2022-12-11T09:03:57.919Z,82.89
2022-12-11T09:04:58.915Z,83.31
2022-12-11T09:05:57.906Z,83.35
2022-12-11T09:06:57.902Z,83.42
2022-12-11T09:07:58.889Z,83.52
2022-12-11T09:08:57.900Z,83.73
2022-12-11T09:09:57.885Z,83.21
2022-12-11T09:10:57.865Z,82.68
2022-12-11T09:11:57.863Z,82.89
2022-12-11T09:12:57.850Z,83.45
2022-12-11T09:14:02.108Z,83.98
2022-12-11T09:14:58.843Z,84.12
2022-12-11T09:15:57.852Z,84.75
2022-12-11T09:16:57.822Z,85.27
2022-12-11T09:17:57.813Z,86.22
2022-12-11T09:18:57.803Z,85.27
2022-12-11T09:19:57.800Z,85.90
2022-12-11T09:20:57.788Z,85.90
2022-12-11T09:23:04.886Z,85.02
2022-12-11T09:24:04.832Z,84.81
2022-12-11T09:25:04.817Z,84.19
2022-12-11T09:26:04.812Z,84.19
2022-12-11T09:27:04.807Z,83.83
2022-12-11T09:28:04.811Z,83.35
2022-12-11T09:29:04.792Z,83.35
2022-12-11T09:30:04.779Z,83.98
2022-12-11T09:31:04.807Z,84.08
2022-12-11T09:32:04.764Z,84.92
2022-12-11T09:33:04.762Z,84.81
2022-12-11T09:34:04.752Z,84.92
2022-12-11T09:35:04.748Z,85.44
2022-12-11T09:36:04.733Z,85.55
2022-12-11T09:37:04.731Z,85.38
2022-12-11T09:38:05.821Z,86.43
2022-12-11T09:39:05.879Z,86.43
2022-12-11T09:40:07.963Z,86.53
2022-12-11T09:41:06.788Z,86.18
2022-12-11T09:42:05.786Z,86.18
2022-12-11T09:43:05.770Z,86.70
2022-12-11T09:44:05.765Z,86.38
2022-12-11T09:45:05.755Z,86.04
2022-12-11T09:46:05.786Z,85.51
2022-12-11T09:47:05.742Z,84.56
2022-12-11T09:48:05.729Z,84.78
2022-12-11T09:49:05.722Z,85.34
2022-12-11T09:50:05.718Z,85.86
2022-12-11T09:51:05.703Z,86.49
2022-12-11T09:52:06.494Z,85.86
2022-12-11T09:53:05.694Z,86.66
2022-12-11T09:54:05.675Z,85.75
2022-12-11T09:55:05.678Z,86.66
2022-12-11T09:56:05.663Z,86.55
2022-12-11T09:57:05.655Z,86.35
2022-12-11T09:58:05.653Z,86.52
2022-12-11T09:59:05.635Z,86.41
2022-12-11T10:00:07.894Z,86.10
2022-12-11T10:01:05.642Z,86.10
2022-12-11T10:02:05.617Z,85.26
2022-12-11T10:03:05.620Z,85.16
2022-12-11T10:04:05.597Z,85.30
2022-12-11T10:05:05.589Z,86.14
2022-12-11T10:06:05.667Z,86.80
2022-12-11T10:07:05.573Z,86.45
2022-12-11T10:08:05.625Z,86.91
2022-12-11T10:09:05.559Z,86.49
2022-12-11T10:10:05.550Z,87.64
2022-12-11T10:11:05.549Z,87.64
2022-12-11T10:12:05.535Z,87.81
2022-12-11T10:13:05.529Z,86.04
2022-12-11T10:14:05.521Z,86.24
2022-12-11T10:15:05.547Z,85.41
2022-12-11T10:16:05.538Z,85.47
2022-12-11T10:17:05.527Z,85.05
2022-12-11T10:18:05.528Z,85.16
2022-12-11T10:19:05.490Z,84.95
2022-12-11T10:20:05.470Z,84.74
2022-12-11T10:21:05.480Z,84.74
2022-12-11T10:22:05.474Z,84.53
2022-12-11T10:23:05.447Z,84.42
2022-12-11T10:24:05.450Z,84.17
2022-12-11T10:25:13.246Z,84.39
2022-12-11T10:26:07.433Z,84.74
2022-12-11T10:27:05.419Z,84.53
2022-12-11T10:28:05.409Z,84.17
2022-12-11T10:29:05.405Z,84.07
2022-12-11T10:30:05.402Z,84.39
2022-12-11T10:31:05.418Z,84.49
2022-12-11T10:32:05.377Z,84.59
2022-12-11T10:33:05.377Z,83.86
2022-12-11T10:34:05.361Z,83.97
2022-12-11T10:35:05.365Z,84.24
2022-12-11T10:36:05.373Z,84.45
2022-12-11T10:37:05.337Z,83.93
2022-12-11T10:38:05.328Z,84.00
2022-12-11T10:39:05.319Z,83.58
2022-12-11T10:40:05.317Z,84.00
2022-12-11T10:41:05.303Z,84.45
2022-12-11T10:42:05.296Z,84.52
2022-12-11T10:43:05.290Z,84.24
2022-12-11T10:44:05.288Z,84.31
2022-12-11T10:45:05.278Z,83.89
2022-12-11T10:46:05.304Z,83.78
2022-12-11T10:47:05.260Z,84.10
2022-12-11T10:48:05.257Z,83.68
2022-12-11T10:49:05.254Z,84.00
2022-12-11T10:50:05.249Z,84.00
2022-12-11T10:51:05.248Z,83.64
2022-12-11T10:52:05.217Z,83.54
2022-12-11T10:53:05.215Z,83.44
2022-12-11T10:54:07.309Z,83.95
2022-12-11T10:55:06.204Z,83.54
2022-12-11T10:56:05.217Z,83.44
2022-12-11T10:57:05.189Z,83.12
2022-12-11T10:58:05.183Z,83.01
2022-12-11T10:59:05.174Z,83.01
2022-12-11T11:00:05.157Z,83.12
2022-12-11T11:01:05.154Z,83.01
2022-12-11T11:02:06.099Z,83.33
2022-12-11T11:03:05.192Z,83.44
2022-12-11T11:04:05.126Z,83.23
2022-12-11T11:05:05.117Z,83.01
2022-12-11T11:06:06.108Z,83.06
2022-12-11T11:07:05.101Z,83.54
2022-12-11T11:08:05.120Z,83.75
2022-12-11T11:09:05.092Z,83.85
2022-12-11T11:10:05.090Z,83.75
2022-12-11T11:11:05.067Z,84.10
2022-12-11T11:12:08.112Z,83.37
2022-12-11T11:13:06.056Z,83.85
2022-12-11T11:14:05.050Z,83.75
2022-12-11T11:15:05.060Z,83.64
2022-12-11T11:16:05.037Z,83.85
2022-12-11T11:17:06.021Z,83.85
2022-12-11T11:18:05.013Z,83.75
2022-12-11T11:19:05.005Z,83.44
2022-12-11T11:20:05.005Z,83.33
2022-12-11T11:21:04.986Z,83.75
2022-12-11T11:22:04.982Z,83.44
2022-12-11T11:23:04.997Z,83.85
2022-12-11T11:24:04.957Z,83.58
2022-12-11T11:25:04.960Z,83.54
2022-12-11T11:26:04.948Z,83.64
2022-12-11T11:27:13.177Z,83.95
2022-12-11T11:28:06.938Z,84.17
2022-12-11T11:29:04.926Z,84.38
2022-12-11T11:30:05.504Z,84.48
2022-12-11T11:31:04.999Z,84.27
2022-12-11T11:32:04.906Z,83.95
2022-12-11T11:33:04.902Z,83.85
2022-12-11T11:34:04.887Z,84.06
2022-12-11T11:35:04.894Z,83.95
2022-12-11T11:36:04.884Z,83.40
2022-12-11T11:37:04.869Z,83.01
2022-12-11T11:38:04.861Z,83.12
2022-12-11T11:39:04.851Z,83.61
2022-12-11T11:40:04.839Z,83.92
2022-12-11T11:41:08.860Z,83.92
2022-12-11T11:42:06.822Z,84.06
2022-12-11T11:43:04.828Z,84.34
2022-12-11T11:44:04.811Z,83.81
2022-12-11T11:45:04.801Z,83.81
2022-12-11T11:46:04.832Z,84.12
2022-12-11T11:47:04.788Z,84.34
2022-12-11T11:48:10.911Z,84.58
2022-12-11T11:49:06.769Z,85.11
2022-12-11T11:50:04.767Z,85.35
2022-12-11T11:51:05.509Z,86.08
2022-12-11T11:52:04.768Z,85.71
2022-12-11T11:53:04.738Z,86.54
2022-12-11T11:54:04.741Z,86.08
2022-12-11T11:55:04.727Z,86.40
2022-12-11T11:56:04.722Z,85.67
2022-12-11T11:57:05.511Z,84.89
2022-12-11T11:58:04.702Z,84.06
2022-12-11T11:59:05.511Z,83.95
2022-12-11T12:00:04.684Z,83.75
2022-12-11T12:01:04.674Z,84.41
2022-12-11T12:02:05.520Z,84.41
2022-12-11T12:03:04.744Z,84.27
2022-12-11T12:04:04.651Z,84.27
2022-12-11T12:05:04.643Z,84.06
2022-12-11T12:06:04.641Z,84.20
2022-12-11T12:07:04.667Z,84.41
2022-12-11T12:08:05.663Z,84.94
2022-12-11T12:09:04.627Z,85.46
2022-12-11T12:10:04.673Z,85.46
2022-12-11T12:11:04.598Z,85.46
2022-12-11T12:12:04.592Z,85.88
2022-12-11T12:13:08.090Z,85.77
2022-12-11T12:14:22.455Z,85.88
2022-12-11T12:15:06.589Z,86.51
2022-12-11T12:16:13.339Z,85.77
2022-12-11T12:17:05.653Z,86.51
2022-12-11T12:18:04.546Z,86.29
2022-12-11T12:19:04.545Z,85.46
2022-12-11T12:20:04.532Z,85.14
2022-12-11T12:21:05.095Z,84.94
2022-12-11T12:22:04.514Z,84.94
2022-12-11T12:23:04.512Z,85.60
2022-12-11T12:24:04.509Z,86.54
2022-12-11T12:25:04.513Z,86.23
2022-12-11T12:26:04.486Z,85.71
2022-12-11T12:27:17.589Z,86.54
2022-12-11T12:28:05.472Z,85.88
2022-12-11T12:29:04.467Z,86.44
2022-12-11T12:30:04.455Z,86.23
2022-12-11T12:31:04.524Z,86.54
2022-12-11T12:32:04.440Z,86.13
2022-12-11T12:33:04.449Z,85.88
2022-12-11T12:34:04.442Z,86.40
2022-12-11T12:35:04.436Z,86.19
2022-12-11T12:36:07.097Z,86.29
2022-12-11T12:37:05.405Z,86.08
2022-12-11T12:38:04.405Z,85.81
2022-12-11T12:39:05.021Z,86.23
2022-12-11T12:40:04.384Z,86.44
2022-12-11T12:41:04.377Z,86.44
2022-12-11T12:42:07.712Z,87.27
2022-12-11T12:43:05.363Z,87.69
2022-12-11T12:44:04.438Z,87.59
2022-12-11T12:45:04.337Z,87.59
2022-12-11T12:46:04.415Z,87.80
2022-12-11T12:47:04.351Z,88.21
2022-12-11T12:48:04.310Z,87.80
2022-12-11T12:49:04.318Z,88.04
2022-12-11T12:50:04.308Z,87.42
2022-12-11T12:51:04.305Z,88.19
2022-12-11T12:52:04.281Z,88.29
2022-12-11T12:53:04.277Z,88.50
2022-12-11T12:54:10.537Z,88.09